sensor_id;sensor_type;location;lat;lon;timestamp;P1;durP1;ratioP1;P2;durP2;ratioP2
63217;SDS011;49314;48.278;16.378;2022-09-23T00:02:16;4.47;;;3.07;;
63217;SDS011;49314;48.278;16.378;2022-09-23T00:04:42;3.13;;;2.92;;
63217;SDS011;49314;48.278;16.378;2022-09-23T00:07:07;3.58;;;3.38;;
63217;SDS011;49314;48.278;16.378;2022-09-23T00:09:33;3.65;;;3.45;;
63217;SDS011;49314;48.278;16.378;2022-09-23T00:11:58;4.25;;;3.95;;
63217;SDS011;49314;48.278;16.378;2022-09-23T00:14:24;3.63;;;3.42;;
63217;SDS011;49314;48.278;16.378;2022-09-23T00:16:49;3.90;;;3.70;;
63217;SDS011;49314;48.278;16.378;2022-09-23T00:19:14;3.63;;;3.43;;
63217;SDS011;49314;48.278;16.378;2022-09-23T00:21:39;3.87;;;3.60;;
63217;SDS011;49314;48.278;16.378;2022-09-23T00:24:04;3.10;;;2.90;;
63217;SDS011;49314;48.278;16.378;2022-09-23T00:26:32;3.67;;;3.45;;
63217;SDS011;49314;48.278;16.378;2022-09-23T00:28:57;3.35;;;3.15;;
63217;SDS011;49314;48.278;16.378;2022-09-23T00:31:23;4.03;;;3.73;;
63217;SDS011;49314;48.278;16.378;2022-09-23T00:33:58;4.20;;;3.90;;
63217;SDS011;49314;48.278;16.378;2022-09-23T00:36:24;4.10;;;3.80;;
63217;SDS011;49314;48.278;16.378;2022-09-23T00:38:49;4.13;;;3.75;;
63217;SDS011;49314;48.278;16.378;2022-09-23T00:41:14;3.28;;;2.97;;
63217;SDS011;49314;48.278;16.378;2022-09-23T00:46:09;3.80;;;3.38;;
63217;SDS011;49314;48.278;16.378;2022-09-23T00:48:36;4.25;;;3.85;;
63217;SDS011;49314;48.278;16.378;2022-09-23T00:51:01;4.65;;;4.38;;
63217;SDS011;49314;48.278;16.378;2022-09-23T00:53:28;2.88;;;2.67;;
63217;SDS011;49314;48.278;16.378;2022-09-23T00:55:54;3.28;;;3.08;;
63217;SDS011;49314;48.278;16.378;2022-09-23T00:58:24;3.72;;;3.42;;
63217;SDS011;49314;48.278;16.378;2022-09-23T01:00:50;3.40;;;3.30;;
63217;SDS011;49314;48.278;16.378;2022-09-23T01:03:16;4.22;;;3.92;;
63217;SDS011;49314;48.278;16.378;2022-09-23T01:05:43;3.20;;;3.00;;
63217;SDS011;49314;48.278;16.378;2022-09-23T01:08:09;3.33;;;3.13;;
63217;SDS011;49314;48.278;16.378;2022-09-23T01:11:19;3.83;;;3.63;;
63217;SDS011;49314;48.278;16.378;2022-09-23T01:16:07;3.72;;;3.42;;
63217;SDS011;49314;48.278;16.378;2022-09-23T01:31:48;4.00;;;3.80;;
63217;SDS011;49314;48.278;16.378;2022-09-23T01:34:21;4.18;;;3.90;;
63217;SDS011;49314;48.278;16.378;2022-09-23T01:41:59;4.40;;;4.00;;
63217;SDS011;49314;48.278;16.378;2022-09-23T01:44:39;4.18;;;3.88;;
63217;SDS011;49314;48.278;16.378;2022-09-23T01:49:46;3.63;;;3.00;;
63217;SDS011;49314;48.278;16.378;2022-09-23T01:52:26;3.67;;;3.35;;
63217;SDS011;49314;48.278;16.378;2022-09-23T01:54:56;4.07;;;3.88;;
63217;SDS011;49314;48.278;16.378;2022-09-23T01:57:58;3.97;;;3.67;;
63217;SDS011;49314;48.278;16.378;2022-09-23T02:00:16;2.03;;;1.83;;
63217;SDS011;49314;48.278;16.378;2022-09-23T02:02:47;3.85;;;3.55;;
63217;SDS011;49314;48.278;16.378;2022-09-23T02:05:33;3.58;;;3.38;;
63217;SDS011;49314;48.278;16.378;2022-09-23T02:08:05;3.55;;;3.35;;
63217;SDS011;49314;48.278;16.378;2022-09-23T02:10:37;2.70;;;2.33;;
63217;SDS011;49314;48.278;16.378;2022-09-23T02:13:12;3.38;;;3.08;;
63217;SDS011;49314;48.278;16.378;2022-09-23T02:15:44;3.72;;;3.53;;
63217;SDS011;49314;48.278;16.378;2022-09-23T02:18:15;3.17;;;2.03;;
63217;SDS011;49314;48.278;16.378;2022-09-23T02:20:41;4.47;;;4.07;;
63217;SDS011;49314;48.278;16.378;2022-09-23T02:23:08;3.17;;;2.97;;
63217;SDS011;49314;48.278;16.378;2022-09-23T02:25:38;3.67;;;3.47;;
63217;SDS011;49314;48.278;16.378;2022-09-23T02:28:17;2.50;;;2.30;;
63217;SDS011;49314;48.278;16.378;2022-09-23T02:30:46;3.20;;;2.97;;
63217;SDS011;49314;48.278;16.378;2022-09-23T02:33:17;3.05;;;2.85;;
63217;SDS011;49314;48.278;16.378;2022-09-23T02:35:47;3.35;;;3.15;;
63217;SDS011;49314;48.278;16.378;2022-09-23T02:38:28;3.50;;;3.30;;
63217;SDS011;49314;48.278;16.378;2022-09-23T02:41:13;3.85;;;3.55;;
63217;SDS011;49314;48.278;16.378;2022-09-23T02:46:10;3.30;;;3.10;;
63217;SDS011;49314;48.278;16.378;2022-09-23T02:51:05;3.58;;;3.33;;
63217;SDS011;49314;48.278;16.378;2022-09-23T02:53:30;2.85;;;2.65;;
63217;SDS011;49314;48.278;16.378;2022-09-23T02:55:59;3.30;;;3.10;;
63217;SDS011;49314;48.278;16.378;2022-09-23T02:58:25;4.30;;;4.00;;
63217;SDS011;49314;48.278;16.378;2022-09-23T03:00:58;4.33;;;4.07;;
63217;SDS011;49314;48.278;16.378;2022-09-23T03:04:15;3.67;;;3.47;;
63217;SDS011;49314;48.278;16.378;2022-09-23T03:08:48;3.38;;;3.17;;
63217;SDS011;49314;48.278;16.378;2022-09-23T03:11:15;4.25;;;4.00;;
63217;SDS011;49314;48.278;16.378;2022-09-23T03:16:31;3.78;;;3.58;;
63217;SDS011;49314;48.278;16.378;2022-09-23T03:19:33;4.05;;;3.85;;
63217;SDS011;49314;48.278;16.378;2022-09-23T03:24:18;4.30;;;4.00;;
63217;SDS011;49314;48.278;16.378;2022-09-23T03:26:44;4.45;;;4.15;;
63217;SDS011;49314;48.278;16.378;2022-09-23T03:29:11;3.88;;;3.55;;
63217;SDS011;49314;48.278;16.378;2022-09-23T03:31:37;4.88;;;4.47;;
63217;SDS011;49314;48.278;16.378;2022-09-23T03:34:05;3.80;;;3.50;;
63217;SDS011;49314;48.278;16.378;2022-09-23T03:36:35;4.03;;;3.83;;
63217;SDS011;49314;48.278;16.378;2022-09-23T03:42:01;4.35;;;4.05;;
63217;SDS011;49314;48.278;16.378;2022-09-23T03:44:27;4.32;;;4.13;;
63217;SDS011;49314;48.278;16.378;2022-09-23T03:46:53;3.40;;;3.20;;
63217;SDS011;49314;48.278;16.378;2022-09-23T03:49:22;4.43;;;4.13;;
63217;SDS011;49314;48.278;16.378;2022-09-23T03:51:49;4.43;;;4.20;;
63217;SDS011;49314;48.278;16.378;2022-09-23T03:54:14;4.43;;;4.22;;
63217;SDS011;49314;48.278;16.378;2022-09-23T03:56:39;4.22;;;3.90;;
63217;SDS011;49314;48.278;16.378;2022-09-23T03:59:05;3.90;;;3.70;;
63217;SDS011;49314;48.278;16.378;2022-09-23T04:01:30;4.10;;;3.90;;
63217;SDS011;49314;48.278;16.378;2022-09-23T04:03:55;3.73;;;3.47;;
63217;SDS011;49314;48.278;16.378;2022-09-23T04:06:20;3.47;;;3.27;;
63217;SDS011;49314;48.278;16.378;2022-09-23T04:08:46;4.75;;;3.92;;
63217;SDS011;49314;48.278;16.378;2022-09-23T04:11:11;4.13;;;3.83;;
63217;SDS011;49314;48.278;16.378;2022-09-23T04:13:37;3.90;;;3.67;;
63217;SDS011;49314;48.278;16.378;2022-09-23T04:16:02;4.57;;;4.28;;
63217;SDS011;49314;48.278;16.378;2022-09-23T04:18:28;3.58;;;3.38;;
63217;SDS011;49314;48.278;16.378;2022-09-23T04:20:56;3.53;;;3.33;;
63217;SDS011;49314;48.278;16.378;2022-09-23T04:23:23;3.45;;;3.25;;
63217;SDS011;49314;48.278;16.378;2022-09-23T04:25:49;4.75;;;4.45;;
63217;SDS011;49314;48.278;16.378;2022-09-23T04:28:14;3.42;;;3.28;;
63217;SDS011;49314;48.278;16.378;2022-09-23T04:30:40;3.78;;;3.58;;
63217;SDS011;49314;48.278;16.378;2022-09-23T04:33:06;4.47;;;4.18;;
63217;SDS011;49314;48.278;16.378;2022-09-23T04:35:31;3.47;;;3.28;;
63217;SDS011;49314;48.278;16.378;2022-09-23T04:37:57;3.55;;;3.35;;
63217;SDS011;49314;48.278;16.378;2022-09-23T04:40:22;2.97;;;2.77;;
63217;SDS011;49314;48.278;16.378;2022-09-23T04:42:47;3.80;;;3.60;;
63217;SDS011;49314;48.278;16.378;2022-09-23T04:45:14;3.88;;;3.67;;
63217;SDS011;49314;48.278;16.378;2022-09-23T04:47:39;4.65;;;4.35;;
63217;SDS011;49314;48.278;16.378;2022-09-23T04:50:05;4.23;;;3.93;;
63217;SDS011;49314;48.278;16.378;2022-09-23T04:52:30;4.80;;;4.60;;
63217;SDS011;49314;48.278;16.378;2022-09-23T04:54:55;4.50;;;4.20;;
63217;SDS011;49314;48.278;16.378;2022-09-23T04:57:20;4.47;;;4.18;;
63217;SDS011;49314;48.278;16.378;2022-09-23T04:59:46;5.33;;;5.03;;
63217;SDS011;49314;48.278;16.378;2022-09-23T05:02:11;4.40;;;4.15;;
63217;SDS011;49314;48.278;16.378;2022-09-23T05:04:36;4.90;;;4.67;;
63217;SDS011;49314;48.278;16.378;2022-09-23T05:07:02;4.90;;;4.60;;
63217;SDS011;49314;48.278;16.378;2022-09-23T05:09:28;4.50;;;4.30;;
63217;SDS011;49314;48.278;16.378;2022-09-23T05:11:53;4.75;;;4.45;;
63217;SDS011;49314;48.278;16.378;2022-09-23T05:14:19;4.85;;;4.63;;
63217;SDS011;49314;48.278;16.378;2022-09-23T05:16:44;4.80;;;4.60;;
63217;SDS011;49314;48.278;16.378;2022-09-23T05:19:09;4.20;;;4.00;;
63217;SDS011;49314;48.278;16.378;2022-09-23T05:21:37;4.65;;;4.35;;
63217;SDS011;49314;48.278;16.378;2022-09-23T05:24:03;4.60;;;4.28;;
63217;SDS011;49314;48.278;16.378;2022-09-23T05:26:29;4.47;;;4.28;;
63217;SDS011;49314;48.278;16.378;2022-09-23T05:28:54;5.45;;;5.15;;
63217;SDS011;49314;48.278;16.378;2022-09-23T05:31:20;4.72;;;4.50;;
63217;SDS011;49314;48.278;16.378;2022-09-23T05:33:47;3.72;;;3.53;;
63217;SDS011;49314;48.278;16.378;2022-09-23T05:36:22;5.05;;;4.85;;
63217;SDS011;49314;48.278;16.378;2022-09-23T05:38:48;4.68;;;4.38;;
63217;SDS011;49314;48.278;16.378;2022-09-23T05:41:14;4.47;;;4.28;;
63217;SDS011;49314;48.278;16.378;2022-09-23T05:43:40;4.95;;;4.65;;
63217;SDS011;49314;48.278;16.378;2022-09-23T05:46:06;3.88;;;3.67;;
63217;SDS011;49314;48.278;16.378;2022-09-23T05:48:31;5.03;;;4.57;;
63217;SDS011;49314;48.278;16.378;2022-09-23T05:50:57;4.18;;;3.90;;
63217;SDS011;49314;48.278;16.378;2022-09-23T05:53:23;3.83;;;3.55;;
63217;SDS011;49314;48.278;16.378;2022-09-23T05:55:49;3.80;;;3.60;;
63217;SDS011;49314;48.278;16.378;2022-09-23T05:58:14;4.30;;;4.10;;
63217;SDS011;49314;48.278;16.378;2022-09-23T06:00:40;4.97;;;4.57;;
63217;SDS011;49314;48.278;16.378;2022-09-23T06:03:07;5.28;;;4.97;;
63217;SDS011;49314;48.278;16.378;2022-09-23T06:05:35;4.15;;;3.92;;
63217;SDS011;49314;48.278;16.378;2022-09-23T06:08:00;4.30;;;4.10;;
63217;SDS011;49314;48.278;16.378;2022-09-23T06:10:26;4.70;;;4.50;;
63217;SDS011;49314;48.278;16.378;2022-09-23T06:12:51;4.83;;;4.53;;
63217;SDS011;49314;48.278;16.378;2022-09-23T06:15:16;4.60;;;4.30;;
63217;SDS011;49314;48.278;16.378;2022-09-23T06:17:42;4.45;;;4.25;;
63217;SDS011;49314;48.278;16.378;2022-09-23T06:20:07;4.87;;;4.63;;
63217;SDS011;49314;48.278;16.378;2022-09-23T06:22:32;5.32;;;5.07;;
63217;SDS011;49314;48.278;16.378;2022-09-23T06:24:58;4.63;;;4.38;;
63217;SDS011;49314;48.278;16.378;2022-09-23T06:27:23;5.13;;;4.93;;
63217;SDS011;49314;48.278;16.378;2022-09-23T06:29:48;4.27;;;3.90;;
63217;SDS011;49314;48.278;16.378;2022-09-23T06:32:16;4.15;;;3.95;;
63217;SDS011;49314;48.278;16.378;2022-09-23T06:34:41;4.43;;;4.22;;
63217;SDS011;49314;48.278;16.378;2022-09-23T06:37:09;5.07;;;4.68;;
63217;SDS011;49314;48.278;16.378;2022-09-23T06:39:34;4.15;;;3.95;;
63217;SDS011;49314;48.278;16.378;2022-09-23T06:42:00;5.23;;;4.93;;
63217;SDS011;49314;48.278;16.378;2022-09-23T06:44:25;4.73;;;4.40;;
63217;SDS011;49314;48.278;16.378;2022-09-23T06:46:52;3.97;;;3.78;;
63217;SDS011;49314;48.278;16.378;2022-09-23T06:49:17;5.40;;;5.00;;
63217;SDS011;49314;48.278;16.378;2022-09-23T06:51:44;4.65;;;4.35;;
63217;SDS011;49314;48.278;16.378;2022-09-23T06:54:09;5.03;;;4.73;;
63217;SDS011;49314;48.278;16.378;2022-09-23T06:56:35;5.07;;;4.77;;
63217;SDS011;49314;48.278;16.378;2022-09-23T06:59:00;5.63;;;5.23;;
63217;SDS011;49314;48.278;16.378;2022-09-23T07:01:25;6.03;;;5.63;;
63217;SDS011;49314;48.278;16.378;2022-09-23T07:03:50;6.10;;;5.77;;
63217;SDS011;49314;48.278;16.378;2022-09-23T07:06:16;5.60;;;5.20;;
63217;SDS011;49314;48.278;16.378;2022-09-23T07:08:42;5.47;;;5.18;;
63217;SDS011;49314;48.278;16.378;2022-09-23T07:11:08;5.25;;;4.95;;
63217;SDS011;49314;48.278;16.378;2022-09-23T07:13:36;6.00;;;5.60;;
63217;SDS011;49314;48.278;16.378;2022-09-23T07:16:01;5.90;;;5.50;;
63217;SDS011;49314;48.278;16.378;2022-09-23T07:18:28;6.47;;;5.97;;
63217;SDS011;49314;48.278;16.378;2022-09-23T07:20:54;5.55;;;5.15;;
63217;SDS011;49314;48.278;16.378;2022-09-23T07:23:22;7.97;;;6.43;;
63217;SDS011;49314;48.278;16.378;2022-09-23T07:25:47;7.25;;;5.63;;
63217;SDS011;49314;48.278;16.378;2022-09-23T07:28:15;5.70;;;5.13;;
63217;SDS011;49314;48.278;16.378;2022-09-23T07:30:40;5.23;;;4.73;;
63217;SDS011;49314;48.278;16.378;2022-09-23T07:33:07;5.63;;;5.10;;
63217;SDS011;49314;48.278;16.378;2022-09-23T07:35:32;7.38;;;4.68;;
63217;SDS011;49314;48.278;16.378;2022-09-23T07:37:58;6.30;;;4.90;;
63217;SDS011;49314;48.278;16.378;2022-09-23T07:40:23;9.50;;;6.05;;
63217;SDS011;49314;48.278;16.378;2022-09-23T07:42:49;9.85;;;5.18;;
63217;SDS011;49314;48.278;16.378;2022-09-23T07:45:14;11.38;;;4.95;;
63217;SDS011;49314;48.278;16.378;2022-09-23T07:47:39;9.37;;;4.70;;
63217;SDS011;49314;48.278;16.378;2022-09-23T07:50:05;7.13;;;5.20;;
63217;SDS011;49314;48.278;16.378;2022-09-23T07:52:34;9.10;;;5.28;;
63217;SDS011;49314;48.278;16.378;2022-09-23T07:55:00;9.25;;;4.95;;
63217;SDS011;49314;48.278;16.378;2022-09-23T07:57:25;5.80;;;4.30;;
63217;SDS011;49314;48.278;16.378;2022-09-23T07:59:50;3.97;;;3.58;;
63217;SDS011;49314;48.278;16.378;2022-09-23T08:02:16;5.68;;;4.85;;
63217;SDS011;49314;48.278;16.378;2022-09-23T08:04:41;4.73;;;4.27;;
63217;SDS011;49314;48.278;16.378;2022-09-23T08:07:06;5.15;;;4.25;;
63217;SDS011;49314;48.278;16.378;2022-09-23T08:09:34;4.53;;;4.13;;
63217;SDS011;49314;48.278;16.378;2022-09-23T08:12:02;6.38;;;5.20;;
63217;SDS011;49314;48.278;16.378;2022-09-23T08:14:27;6.75;;;5.53;;
63217;SDS011;49314;48.278;16.378;2022-09-23T08:16:52;5.75;;;5.00;;
63217;SDS011;49314;48.278;16.378;2022-09-23T08:19:18;5.65;;;5.13;;
63217;SDS011;49314;48.278;16.378;2022-09-23T08:21:44;5.25;;;4.75;;
63217;SDS011;49314;48.278;16.378;2022-09-23T08:24:12;5.35;;;4.93;;
63217;SDS011;49314;48.278;16.378;2022-09-23T08:26:38;4.35;;;4.07;;
63217;SDS011;49314;48.278;16.378;2022-09-23T08:29:03;4.27;;;3.67;;
63217;SDS011;49314;48.278;16.378;2022-09-23T08:31:29;7.75;;;5.35;;
63217;SDS011;49314;48.278;16.378;2022-09-23T08:33:55;4.55;;;4.25;;
63217;SDS011;49314;48.278;16.378;2022-09-23T08:36:20;6.53;;;4.68;;
63217;SDS011;49314;48.278;16.378;2022-09-23T08:38:45;5.35;;;4.82;;
63217;SDS011;49314;48.278;16.378;2022-09-23T08:43:53;5.30;;;4.90;;
63217;SDS011;49314;48.278;16.378;2022-09-23T08:46:24;5.93;;;4.20;;
63217;SDS011;49314;48.278;16.378;2022-09-23T08:48:51;5.03;;;4.57;;
63217;SDS011;49314;48.278;16.378;2022-09-23T08:51:34;4.90;;;4.60;;
63217;SDS011;49314;48.278;16.378;2022-09-23T08:53:59;5.50;;;4.13;;
63217;SDS011;49314;48.278;16.378;2022-09-23T08:56:25;8.45;;;5.03;;
63217;SDS011;49314;48.278;16.378;2022-09-23T09:03:55;6.38;;;3.65;;
63217;SDS011;49314;48.278;16.378;2022-09-23T09:06:26;5.93;;;5.32;;
63217;SDS011;49314;48.278;16.378;2022-09-23T09:08:56;17.88;;;8.38;;
63217;SDS011;49314;48.278;16.378;2022-09-23T09:11:25;20.92;;;8.15;;
63217;SDS011;49314;48.278;16.378;2022-09-23T09:13:59;17.90;;;6.22;;
63217;SDS011;49314;48.278;16.378;2022-09-23T09:16:43;15.73;;;6.00;;
63217;SDS011;49314;48.278;16.378;2022-09-23T09:19:18;8.60;;;5.70;;
63217;SDS011;49314;48.278;16.378;2022-09-23T09:21:43;10.93;;;6.10;;
63217;SDS011;49314;48.278;16.378;2022-09-23T09:24:15;12.00;;;6.35;;
63217;SDS011;49314;48.278;16.378;2022-09-23T09:26:41;11.52;;;6.13;;
63217;SDS011;49314;48.278;16.378;2022-09-23T09:29:23;16.43;;;6.27;;
63217;SDS011;49314;48.278;16.378;2022-09-23T09:31:49;27.42;;;7.63;;
63217;SDS011;49314;48.278;16.378;2022-09-23T09:39:17;11.70;;;6.22;;
63217;SDS011;49314;48.278;16.378;2022-09-23T09:41:46;11.75;;;5.50;;
63217;SDS011;49314;48.278;16.378;2022-09-23T09:49:35;8.27;;;4.25;;
63217;SDS011;49314;48.278;16.378;2022-09-23T09:57:49;8.52;;;4.75;;
63217;SDS011;49314;48.278;16.378;2022-09-23T10:02:52;10.65;;;4.55;;
63217;SDS011;49314;48.278;16.378;2022-09-23T10:07:50;9.30;;;3.67;;
63217;SDS011;49314;48.278;16.378;2022-09-23T10:10:16;8.60;;;4.73;;
63217;SDS011;49314;48.278;16.378;2022-09-23T10:12:45;6.35;;;3.97;;
63217;SDS011;49314;48.278;16.378;2022-09-23T10:15:30;7.78;;;4.60;;
63217;SDS011;49314;48.278;16.378;2022-09-23T10:17:57;6.45;;;5.18;;
63217;SDS011;49314;48.278;16.378;2022-09-23T10:20:25;5.90;;;4.47;;
63217;SDS011;49314;48.278;16.378;2022-09-23T10:22:50;6.45;;;4.70;;
63217;SDS011;49314;48.278;16.378;2022-09-23T10:25:19;7.60;;;4.15;;
63217;SDS011;49314;48.278;16.378;2022-09-23T10:27:44;4.68;;;4.22;;
63217;SDS011;49314;48.278;16.378;2022-09-23T10:30:20;5.18;;;4.13;;
63217;SDS011;49314;48.278;16.378;2022-09-23T10:32:46;6.63;;;3.95;;
63217;SDS011;49314;48.278;16.378;2022-09-23T10:35:18;4.50;;;4.10;;
63217;SDS011;49314;48.278;16.378;2022-09-23T10:37:53;4.97;;;3.30;;
63217;SDS011;49314;48.278;16.378;2022-09-23T10:45:56;4.07;;;2.78;;
63217;SDS011;49314;48.278;16.378;2022-09-23T10:49:08;4.43;;;4.05;;
63217;SDS011;49314;48.278;16.378;2022-09-23T10:51:56;6.25;;;3.90;;
63217;SDS011;49314;48.278;16.378;2022-09-23T10:54:35;4.60;;;3.75;;
63217;SDS011;49314;48.278;16.378;2022-09-23T10:57:07;3.78;;;3.58;;
63217;SDS011;49314;48.278;16.378;2022-09-23T11:15:17;5.63;;;3.47;;
63217;SDS011;49314;48.278;16.378;2022-09-23T11:28:24;4.85;;;4.32;;
63217;SDS011;49314;48.278;16.378;2022-09-23T11:36:01;3.28;;;3.03;;
63217;SDS011;49314;48.278;16.378;2022-09-23T11:40:58;5.68;;;3.78;;
63217;SDS011;49314;48.278;16.378;2022-09-23T11:43:26;3.45;;;3.17;;
63217;SDS011;49314;48.278;16.378;2022-09-23T11:45:59;3.90;;;2.10;;
63217;SDS011;49314;48.278;16.378;2022-09-23T11:50:56;4.00;;;3.60;;
63217;SDS011;49314;48.278;16.378;2022-09-23T11:53:27;4.22;;;3.65;;
63217;SDS011;49314;48.278;16.378;2022-09-23T11:58:30;12.98;;;3.75;;
63217;SDS011;49314;48.278;16.378;2022-09-23T12:00:58;5.72;;;3.35;;
63217;SDS011;49314;48.278;16.378;2022-09-23T12:03:30;3.45;;;3.15;;
63217;SDS011;49314;48.278;16.378;2022-09-23T12:06:00;3.60;;;3.20;;
63217;SDS011;49314;48.278;16.378;2022-09-23T12:08:30;4.57;;;3.92;;
63217;SDS011;49314;48.278;16.378;2022-09-23T12:16:37;5.00;;;4.35;;
63217;SDS011;49314;48.278;16.378;2022-09-23T12:19:17;3.35;;;2.17;;
63217;SDS011;49314;48.278;16.378;2022-09-23T12:26:57;6.93;;;3.27;;
63217;SDS011;49314;48.278;16.378;2022-09-23T12:29:23;5.10;;;3.50;;
63217;SDS011;49314;48.278;16.378;2022-09-23T12:31:49;3.85;;;3.45;;
63217;SDS011;49314;48.278;16.378;2022-09-23T12:34:22;4.95;;;2.70;;
63217;SDS011;49314;48.278;16.378;2022-09-23T12:36:48;3.63;;;3.25;;
63217;SDS011;49314;48.278;16.378;2022-09-23T12:39:32;5.45;;;3.97;;
63217;SDS011;49314;48.278;16.378;2022-09-23T12:42:01;4.70;;;2.85;;
63217;SDS011;49314;48.278;16.378;2022-09-23T12:44:35;4.97;;;3.90;;
63217;SDS011;49314;48.278;16.378;2022-09-23T12:49:38;4.15;;;3.85;;
63217;SDS011;49314;48.278;16.378;2022-09-23T12:54:42;5.45;;;3.65;;
63217;SDS011;49314;48.278;16.378;2022-09-23T12:57:11;9.30;;;4.13;;
63217;SDS011;49314;48.278;16.378;2022-09-23T13:02:20;9.77;;;4.07;;
63217;SDS011;49314;48.278;16.378;2022-09-23T13:07:46;10.02;;;4.85;;
63217;SDS011;49314;48.278;16.378;2022-09-23T13:12:38;13.50;;;4.77;;
63217;SDS011;49314;48.278;16.378;2022-09-23T13:15:04;16.33;;;5.40;;
63217;SDS011;49314;48.278;16.378;2022-09-23T13:17:36;9.00;;;3.60;;
63217;SDS011;49314;48.278;16.378;2022-09-23T13:27:44;14.53;;;5.03;;
63217;SDS011;49314;48.278;16.378;2022-09-23T13:32:39;10.55;;;5.45;;
63217;SDS011;49314;48.278;16.378;2022-09-23T13:35:42;13.02;;;6.05;;
63217;SDS011;49314;48.278;16.378;2022-09-23T13:38:03;11.38;;;4.32;;
63217;SDS011;49314;48.278;16.378;2022-09-23T13:40:32;11.77;;;5.53;;
63217;SDS011;49314;48.278;16.378;2022-09-23T13:43:03;7.95;;;4.55;;
63217;SDS011;49314;48.278;16.378;2022-09-23T13:45:29;6.32;;;4.55;;
63217;SDS011;49314;48.278;16.378;2022-09-23T13:48:00;7.97;;;4.88;;
63217;SDS011;49314;48.278;16.378;2022-09-23T13:50:26;7.63;;;4.05;;
63217;SDS011;49314;48.278;16.378;2022-09-23T13:52:54;7.43;;;4.05;;
63217;SDS011;49314;48.278;16.378;2022-09-23T13:55:24;7.00;;;4.18;;
63217;SDS011;49314;48.278;16.378;2022-09-23T13:57:55;6.22;;;4.05;;
63217;SDS011;49314;48.278;16.378;2022-09-23T14:00:20;4.82;;;4.18;;
63217;SDS011;49314;48.278;16.378;2022-09-23T14:02:47;7.80;;;4.15;;
63217;SDS011;49314;48.278;16.378;2022-09-23T14:05:16;5.57;;;3.63;;
63217;SDS011;49314;48.278;16.378;2022-09-23T14:07:45;5.25;;;3.60;;
63217;SDS011;49314;48.278;16.378;2022-09-23T14:10:13;10.48;;;4.88;;
63217;SDS011;49314;48.278;16.378;2022-09-23T14:12:40;5.60;;;4.35;;
63217;SDS011;49314;48.278;16.378;2022-09-23T14:15:11;10.43;;;4.40;;
63217;SDS011;49314;48.278;16.378;2022-09-23T14:17:36;6.93;;;4.05;;
63217;SDS011;49314;48.278;16.378;2022-09-23T14:20:02;6.97;;;3.83;;
63217;SDS011;49314;48.278;16.378;2022-09-23T14:22:28;6.75;;;4.38;;
63217;SDS011;49314;48.278;16.378;2022-09-23T14:24:53;9.32;;;4.72;;
63217;SDS011;49314;48.278;16.378;2022-09-23T14:27:26;10.13;;;5.53;;
63217;SDS011;49314;48.278;16.378;2022-09-23T14:32:21;13.77;;;5.97;;
63217;SDS011;49314;48.278;16.378;2022-09-23T14:40:16;15.50;;;7.28;;
63217;SDS011;49314;48.278;16.378;2022-09-23T14:42:43;19.15;;;6.47;;
63217;SDS011;49314;48.278;16.378;2022-09-23T14:45:14;13.80;;;6.35;;
63217;SDS011;49314;48.278;16.378;2022-09-23T14:47:42;14.55;;;6.10;;
63217;SDS011;49314;48.278;16.378;2022-09-23T14:50:13;16.25;;;6.70;;
63217;SDS011;49314;48.278;16.378;2022-09-23T14:52:57;12.73;;;6.10;;
63217;SDS011;49314;48.278;16.378;2022-09-23T14:55:22;15.00;;;5.87;;
63217;SDS011;49314;48.278;16.378;2022-09-23T14:57:58;10.57;;;4.60;;
63217;SDS011;49314;48.278;16.378;2022-09-23T15:03:12;11.48;;;6.55;;
63217;SDS011;49314;48.278;16.378;2022-09-23T15:05:39;12.68;;;6.57;;
63217;SDS011;49314;48.278;16.378;2022-09-23T15:08:06;10.30;;;5.50;;
63217;SDS011;49314;48.278;16.378;2022-09-23T15:10:32;14.23;;;5.50;;
63217;SDS011;49314;48.278;16.378;2022-09-23T15:13:22;18.48;;;6.88;;
63217;SDS011;49314;48.278;16.378;2022-09-23T15:15:46;9.18;;;5.10;;
63217;SDS011;49314;48.278;16.378;2022-09-23T15:18:16;7.00;;;4.40;;
63217;SDS011;49314;48.278;16.378;2022-09-23T15:20:49;10.77;;;5.18;;
63217;SDS011;49314;48.278;16.378;2022-09-23T15:23:31;27.48;;;8.50;;
63217;SDS011;49314;48.278;16.378;2022-09-23T15:25:57;10.18;;;6.03;;
63217;SDS011;49314;48.278;16.378;2022-09-23T15:28:26;13.30;;;5.10;;
63217;SDS011;49314;48.278;16.378;2022-09-23T15:30:51;9.70;;;5.23;;
63217;SDS011;49314;48.278;16.378;2022-09-23T15:33:17;20.42;;;6.30;;
63217;SDS011;49314;48.278;16.378;2022-09-23T15:35:44;15.87;;;6.33;;
63217;SDS011;49314;48.278;16.378;2022-09-23T15:38:10;11.48;;;5.75;;
63217;SDS011;49314;48.278;16.378;2022-09-23T15:40:37;9.15;;;5.35;;
63217;SDS011;49314;48.278;16.378;2022-09-23T15:43:10;13.75;;;6.75;;
63217;SDS011;49314;48.278;16.378;2022-09-23T15:45:42;16.02;;;6.28;;
63217;SDS011;49314;48.278;16.378;2022-09-23T15:48:15;14.57;;;6.75;;
63217;SDS011;49314;48.278;16.378;2022-09-23T15:53:08;13.40;;;5.50;;
63217;SDS011;49314;48.278;16.378;2022-09-23T15:55:34;10.82;;;5.43;;
63217;SDS011;49314;48.278;16.378;2022-09-23T15:57:59;11.23;;;6.90;;
63217;SDS011;49314;48.278;16.378;2022-09-23T16:00:25;9.47;;;5.13;;
63217;SDS011;49314;48.278;16.378;2022-09-23T16:02:50;9.27;;;5.93;;
63217;SDS011;49314;48.278;16.378;2022-09-23T16:07:42;10.52;;;5.70;;
63217;SDS011;49314;48.278;16.378;2022-09-23T16:10:07;11.27;;;5.07;;
63217;SDS011;49314;48.278;16.378;2022-09-23T16:12:32;12.45;;;7.05;;
63217;SDS011;49314;48.278;16.378;2022-09-23T16:14:58;8.95;;;4.43;;
63217;SDS011;49314;48.278;16.378;2022-09-23T16:17:23;9.43;;;6.23;;
63217;SDS011;49314;48.278;16.378;2022-09-23T16:19:53;11.23;;;5.63;;
63217;SDS011;49314;48.278;16.378;2022-09-23T16:22:18;9.43;;;5.77;;
63217;SDS011;49314;48.278;16.378;2022-09-23T16:24:43;12.77;;;5.30;;
63217;SDS011;49314;48.278;16.378;2022-09-23T16:27:08;9.90;;;6.87;;
63217;SDS011;49314;48.278;16.378;2022-09-23T16:29:35;10.60;;;4.72;;
63217;SDS011;49314;48.278;16.378;2022-09-23T16:32:01;10.60;;;6.23;;
63217;SDS011;49314;48.278;16.378;2022-09-23T16:34:26;7.13;;;4.27;;
63217;SDS011;49314;48.278;16.378;2022-09-23T16:36:51;9.70;;;5.20;;
63217;SDS011;49314;48.278;16.378;2022-09-23T16:39:16;8.67;;;4.90;;
63217;SDS011;49314;48.278;16.378;2022-09-23T16:41:43;6.63;;;4.65;;
63217;SDS011;49314;48.278;16.378;2022-09-23T16:44:09;7.05;;;4.55;;
63217;SDS011;49314;48.278;16.378;2022-09-23T16:46:36;8.20;;;4.97;;
63217;SDS011;49314;48.278;16.378;2022-09-23T16:49:01;9.33;;;5.57;;
63217;SDS011;49314;48.278;16.378;2022-09-23T16:51:28;7.72;;;4.05;;
63217;SDS011;49314;48.278;16.378;2022-09-23T16:53:54;7.75;;;4.53;;
63217;SDS011;49314;48.278;16.378;2022-09-23T16:56:20;4.80;;;4.05;;
63217;SDS011;49314;48.278;16.378;2022-09-23T16:58:46;5.97;;;5.20;;
63217;SDS011;49314;48.278;16.378;2022-09-23T17:01:13;9.32;;;4.82;;
63217;SDS011;49314;48.278;16.378;2022-09-23T17:03:57;7.20;;;5.30;;
63217;SDS011;49314;48.278;16.378;2022-09-23T17:06:22;7.23;;;4.67;;
63217;SDS011;49314;48.278;16.378;2022-09-23T17:08:51;6.30;;;4.68;;
63217;SDS011;49314;48.278;16.378;2022-09-23T17:11:17;8.35;;;5.22;;
63217;SDS011;49314;48.278;16.378;2022-09-23T17:13:43;6.22;;;4.32;;
63217;SDS011;49314;48.278;16.378;2022-09-23T17:16:09;9.18;;;4.07;;
63217;SDS011;49314;48.278;16.378;2022-09-23T17:18:35;9.18;;;4.15;;
63217;SDS011;49314;48.278;16.378;2022-09-23T17:21:04;7.00;;;3.67;;
63217;SDS011;49314;48.278;16.378;2022-09-23T17:23:30;7.78;;;4.68;;
63217;SDS011;49314;48.278;16.378;2022-09-23T17:25:56;6.50;;;5.00;;